sensor_id;sensor_type;location;lat;lon;timestamp;P1;durP1;ratioP1;P2;durP2;ratioP2
23338;SDS011;11841;49.368;20.962;2022-09-03T00:01:47;8.73;;;2.83;;
23338;SDS011;11841;49.368;20.962;2022-09-03T00:04:23;5.05;;;2.80;;
23338;SDS011;11841;49.368;20.962;2022-09-03T00:06:58;7.30;;;3.55;;
23338;SDS011;11841;49.368;20.962;2022-09-03T00:09:35;4.60;;;2.63;;
23338;SDS011;11841;49.368;20.962;2022-09-03T00:12:25;4.53;;;2.70;;
23338;SDS011;11841;49.368;20.962;2022-09-03T00:14:54;7.78;;;3.33;;
23338;SDS011;11841;49.368;20.962;2022-09-03T00:20:15;4.90;;;2.17;;
23338;SDS011;11841;49.368;20.962;2022-09-03T00:22:46;3.97;;;2.63;;
23338;SDS011;11841;49.368;20.962;2022-09-03T00:25:27;4.57;;;2.65;;
23338;SDS011;11841;49.368;20.962;2022-09-03T00:28:00;4.60;;;2.67;;
23338;SDS011;11841;49.368;20.962;2022-09-03T00:30:30;9.25;;;2.80;;
23338;SDS011;11841;49.368;20.962;2022-09-03T00:33:00;4.25;;;2.53;;
23338;SDS011;11841;49.368;20.962;2022-09-03T00:38:07;8.60;;;3.47;;
23338;SDS011;11841;49.368;20.962;2022-09-03T00:46:23;4.47;;;2.63;;
23338;SDS011;11841;49.368;20.962;2022-09-03T00:54:37;7.50;;;2.25;;
23338;SDS011;11841;49.368;20.962;2022-09-03T01:30:13;5.45;;;2.42;;
23338;SDS011;11841;49.368;20.962;2022-09-03T01:32:46;4.75;;;2.42;;
23338;SDS011;11841;49.368;20.962;2022-09-03T01:44:02;4.85;;;2.15;;
23338;SDS011;11841;49.368;20.962;2022-09-03T01:46:48;3.53;;;2.50;;
23338;SDS011;11841;49.368;20.962;2022-09-03T01:49:26;3.92;;;2.05;;
23338;SDS011;11841;49.368;20.962;2022-09-03T01:52:10;6.05;;;2.40;;
23338;SDS011;11841;49.368;20.962;2022-09-03T02:00:21;3.15;;;1.90;;
23338;SDS011;11841;49.368;20.962;2022-09-03T02:02:49;3.45;;;2.15;;
23338;SDS011;11841;49.368;20.962;2022-09-03T02:05:18;3.53;;;1.95;;
23338;SDS011;11841;49.368;20.962;2022-09-03T02:07:59;4.13;;;1.70;;
23338;SDS011;11841;49.368;20.962;2022-09-03T02:10:32;2.45;;;1.80;;
23338;SDS011;11841;49.368;20.962;2022-09-03T02:13:17;2.42;;;1.95;;
23338;SDS011;11841;49.368;20.962;2022-09-03T02:15:47;3.80;;;1.65;;
23338;SDS011;11841;49.368;20.962;2022-09-03T02:18:16;5.07;;;1.67;;
23338;SDS011;11841;49.368;20.962;2022-09-03T02:20:46;3.28;;;1.88;;
23338;SDS011;11841;49.368;20.962;2022-09-03T02:23:14;4.00;;;1.65;;
23338;SDS011;11841;49.368;20.962;2022-09-03T02:25:43;1.70;;;1.40;;
23338;SDS011;11841;49.368;20.962;2022-09-03T02:28:13;3.17;;;1.83;;
23338;SDS011;11841;49.368;20.962;2022-09-03T02:30:43;5.95;;;1.95;;
23338;SDS011;11841;49.368;20.962;2022-09-03T02:33:10;3.53;;;2.05;;
23338;SDS011;11841;49.368;20.962;2022-09-03T02:35:38;3.70;;;1.77;;
23338;SDS011;11841;49.368;20.962;2022-09-03T02:38:16;5.85;;;1.70;;
23338;SDS011;11841;49.368;20.962;2022-09-03T02:40:51;3.33;;;1.92;;
23338;SDS011;11841;49.368;20.962;2022-09-03T02:43:24;2.85;;;1.38;;
23338;SDS011;11841;49.368;20.962;2022-09-03T02:45:58;3.47;;;1.60;;
23338;SDS011;11841;49.368;20.962;2022-09-03T02:48:29;2.17;;;1.52;;
23338;SDS011;11841;49.368;20.962;2022-09-03T02:50:56;2.35;;;1.50;;
23338;SDS011;11841;49.368;20.962;2022-09-03T02:53:22;4.07;;;1.67;;
23338;SDS011;11841;49.368;20.962;2022-09-03T02:55:49;1.73;;;1.30;;
23338;SDS011;11841;49.368;20.962;2022-09-03T02:58:15;3.53;;;1.67;;
23338;SDS011;11841;49.368;20.962;2022-09-03T03:00:42;2.63;;;1.90;;
23338;SDS011;11841;49.368;20.962;2022-09-03T03:03:09;4.07;;;1.88;;
23338;SDS011;11841;49.368;20.962;2022-09-03T03:08:12;3.58;;;2.33;;
23338;SDS011;11841;49.368;20.962;2022-09-03T03:10:40;1.92;;;1.75;;
23338;SDS011;11841;49.368;20.962;2022-09-03T03:13:10;3.88;;;1.88;;
23338;SDS011;11841;49.368;20.962;2022-09-03T03:15:37;2.67;;;1.50;;
23338;SDS011;11841;49.368;20.962;2022-09-03T03:18:04;3.65;;;2.05;;
23338;SDS011;11841;49.368;20.962;2022-09-03T03:20:31;4.13;;;3.47;;
23338;SDS011;11841;49.368;20.962;2022-09-03T03:23:00;2.85;;;1.60;;
23338;SDS011;11841;49.368;20.962;2022-09-03T03:25:27;2.67;;;1.63;;
23338;SDS011;11841;49.368;20.962;2022-09-03T03:27:54;2.40;;;1.88;;
23338;SDS011;11841;49.368;20.962;2022-09-03T03:30:22;1.80;;;1.45;;
23338;SDS011;11841;49.368;20.962;2022-09-03T03:32:51;2.20;;;1.73;;
23338;SDS011;11841;49.368;20.962;2022-09-03T03:37:45;3.22;;;1.50;;
23338;SDS011;11841;49.368;20.962;2022-09-03T03:40:12;2.13;;;1.90;;
23338;SDS011;11841;49.368;20.962;2022-09-03T03:42:40;3.13;;;1.63;;
23338;SDS011;11841;49.368;20.962;2022-09-03T03:45:07;2.35;;;1.38;;
23338;SDS011;11841;49.368;20.962;2022-09-03T03:47:38;1.45;;;1.33;;
23338;SDS011;11841;49.368;20.962;2022-09-03T03:50:04;1.45;;;1.35;;
23338;SDS011;11841;49.368;20.962;2022-09-03T03:52:31;1.92;;;1.40;;
23338;SDS011;11841;49.368;20.962;2022-09-03T03:54:58;1.83;;;1.30;;
23338;SDS011;11841;49.368;20.962;2022-09-03T03:57:24;2.58;;;1.40;;
23338;SDS011;11841;49.368;20.962;2022-09-03T03:59:51;2.03;;;1.63;;
23338;SDS011;11841;49.368;20.962;2022-09-03T04:02:18;2.25;;;1.40;;
23338;SDS011;11841;49.368;20.962;2022-09-03T04:04:44;1.27;;;1.17;;
23338;SDS011;11841;49.368;20.962;2022-09-03T04:07:11;1.80;;;1.27;;
23338;SDS011;11841;49.368;20.962;2022-09-03T04:09:37;2.85;;;1.45;;
23338;SDS011;11841;49.368;20.962;2022-09-03T04:12:04;3.90;;;1.50;;
23338;SDS011;11841;49.368;20.962;2022-09-03T04:14:33;1.70;;;1.15;;
23338;SDS011;11841;49.368;20.962;2022-09-03T04:17:00;2.13;;;1.40;;
23338;SDS011;11841;49.368;20.962;2022-09-03T04:19:28;3.55;;;2.30;;
23338;SDS011;11841;49.368;20.962;2022-09-03T04:21:55;1.92;;;1.60;;
23338;SDS011;11841;49.368;20.962;2022-09-03T04:24:22;2.65;;;1.30;;
23338;SDS011;11841;49.368;20.962;2022-09-03T04:26:49;2.42;;;1.48;;
23338;SDS011;11841;49.368;20.962;2022-09-03T04:29:15;2.92;;;1.73;;
23338;SDS011;11841;49.368;20.962;2022-09-03T04:31:43;1.98;;;1.40;;
23338;SDS011;11841;49.368;20.962;2022-09-03T04:34:30;2.60;;;1.55;;
23338;SDS011;11841;49.368;20.962;2022-09-03T04:36:56;1.52;;;1.23;;
23338;SDS011;11841;49.368;20.962;2022-09-03T04:39:24;2.65;;;1.27;;
23338;SDS011;11841;49.368;20.962;2022-09-03T04:41:51;2.65;;;1.27;;
23338;SDS011;11841;49.368;20.962;2022-09-03T04:44:18;4.15;;;1.58;;
23338;SDS011;11841;49.368;20.962;2022-09-03T04:46:44;1.88;;;1.20;;
23338;SDS011;11841;49.368;20.962;2022-09-03T04:49:13;2.03;;;0.90;;
23338;SDS011;11841;49.368;20.962;2022-09-03T04:51:40;1.63;;;1.30;;
23338;SDS011;11841;49.368;20.962;2022-09-03T04:54:07;1.00;;;0.90;;
23338;SDS011;11841;49.368;20.962;2022-09-03T04:56:38;2.05;;;1.20;;
23338;SDS011;11841;49.368;20.962;2022-09-03T04:59:06;2.60;;;1.48;;
23338;SDS011;11841;49.368;20.962;2022-09-03T05:01:36;2.70;;;1.10;;
23338;SDS011;11841;49.368;20.962;2022-09-03T05:04:04;1.63;;;1.13;;
23338;SDS011;11841;49.368;20.962;2022-09-03T05:06:32;2.92;;;1.33;;
23338;SDS011;11841;49.368;20.962;2022-09-03T05:08:59;1.40;;;1.17;;
23338;SDS011;11841;49.368;20.962;2022-09-03T05:11:27;1.45;;;1.00;;
23338;SDS011;11841;49.368;20.962;2022-09-03T05:13:55;1.20;;;1.10;;
23338;SDS011;11841;49.368;20.962;2022-09-03T05:18:51;2.08;;;1.05;;
23338;SDS011;11841;49.368;20.962;2022-09-03T05:21:19;1.25;;;1.15;;
23338;SDS011;11841;49.368;20.962;2022-09-03T05:23:47;1.70;;;1.02;;
23338;SDS011;11841;49.368;20.962;2022-09-03T05:26:17;5.25;;;1.60;;
23338;SDS011;11841;49.368;20.962;2022-09-03T05:28:54;2.22;;;1.00;;
23338;SDS011;11841;49.368;20.962;2022-09-03T05:31:24;1.02;;;0.98;;
23338;SDS011;11841;49.368;20.962;2022-09-03T05:33:54;0.82;;;0.82;;
23338;SDS011;11841;49.368;20.962;2022-09-03T05:36:24;1.10;;;1.00;;
23338;SDS011;11841;49.368;20.962;2022-09-03T05:38:53;1.50;;;0.85;;
23338;SDS011;11841;49.368;20.962;2022-09-03T05:41:21;0.75;;;0.75;;
23338;SDS011;11841;49.368;20.962;2022-09-03T05:43:49;1.13;;;1.00;;
23338;SDS011;11841;49.368;20.962;2022-09-03T05:46:18;1.00;;;0.85;;
23338;SDS011;11841;49.368;20.962;2022-09-03T05:48:45;0.88;;;0.80;;
23338;SDS011;11841;49.368;20.962;2022-09-03T05:51:12;1.38;;;1.20;;
23338;SDS011;11841;49.368;20.962;2022-09-03T05:53:42;1.40;;;0.73;;
23338;SDS011;11841;49.368;20.962;2022-09-03T05:56:12;0.90;;;0.90;;
23338;SDS011;11841;49.368;20.962;2022-09-03T05:58:46;0.98;;;0.90;;
23338;SDS011;11841;49.368;20.962;2022-09-03T06:01:22;0.73;;;0.73;;
23338;SDS011;11841;49.368;20.962;2022-09-03T06:03:52;1.33;;;1.00;;
23338;SDS011;11841;49.368;20.962;2022-09-03T06:06:21;4.40;;;1.00;;
23338;SDS011;11841;49.368;20.962;2022-09-03T06:08:51;1.17;;;0.90;;
23338;SDS011;11841;49.368;20.962;2022-09-03T06:11:26;1.02;;;0.95;;
23338;SDS011;11841;49.368;20.962;2022-09-03T06:13:55;3.10;;;1.05;;
23338;SDS011;11841;49.368;20.962;2022-09-03T06:16:22;1.30;;;0.95;;
23338;SDS011;11841;49.368;20.962;2022-09-03T06:18:57;1.25;;;1.05;;
23338;SDS011;11841;49.368;20.962;2022-09-03T06:21:25;1.23;;;1.10;;
23338;SDS011;11841;49.368;20.962;2022-09-03T06:23:53;2.53;;;1.30;;
23338;SDS011;11841;49.368;20.962;2022-09-03T06:26:25;2.50;;;1.20;;
23338;SDS011;11841;49.368;20.962;2022-09-03T06:28:56;1.73;;;1.33;;
23338;SDS011;11841;49.368;20.962;2022-09-03T06:31:23;2.97;;;1.52;;
23338;SDS011;11841;49.368;20.962;2022-09-03T06:33:50;2.00;;;1.42;;
23338;SDS011;11841;49.368;20.962;2022-09-03T06:36:20;4.05;;;1.20;;
23338;SDS011;11841;49.368;20.962;2022-09-03T06:38:50;1.27;;;1.17;;
23338;SDS011;11841;49.368;20.962;2022-09-03T06:41:18;1.27;;;1.10;;
23338;SDS011;11841;49.368;20.962;2022-09-03T06:43:55;2.10;;;1.30;;
23338;SDS011;11841;49.368;20.962;2022-09-03T06:46:32;2.33;;;1.00;;
23338;SDS011;11841;49.368;20.962;2022-09-03T06:49:00;4.22;;;1.10;;
23338;SDS011;11841;49.368;20.962;2022-09-03T06:51:28;1.35;;;1.05;;
23338;SDS011;11841;49.368;20.962;2022-09-03T06:54:07;1.83;;;1.33;;
23338;SDS011;11841;49.368;20.962;2022-09-03T06:56:36;2.90;;;1.10;;
23338;SDS011;11841;49.368;20.962;2022-09-03T06:59:12;3.00;;;1.10;;
23338;SDS011;11841;49.368;20.962;2022-09-03T07:01:41;1.58;;;1.35;;
23338;SDS011;11841;49.368;20.962;2022-09-03T07:04:11;1.67;;;1.20;;
23338;SDS011;11841;49.368;20.962;2022-09-03T07:06:39;2.30;;;1.15;;
23338;SDS011;11841;49.368;20.962;2022-09-03T07:11:35;1.33;;;1.10;;
23338;SDS011;11841;49.368;20.962;2022-09-03T07:14:03;1.55;;;1.30;;
23338;SDS011;11841;49.368;20.962;2022-09-03T07:16:34;1.60;;;1.20;;
23338;SDS011;11841;49.368;20.962;2022-09-03T07:19:02;2.15;;;1.08;;
23338;SDS011;11841;49.368;20.962;2022-09-03T07:21:31;2.30;;;1.27;;
23338;SDS011;11841;49.368;20.962;2022-09-03T07:26:27;1.92;;;1.30;;
23338;SDS011;11841;49.368;20.962;2022-09-03T07:28:55;1.60;;;1.30;;
23338;SDS011;11841;49.368;20.962;2022-09-03T07:31:23;1.63;;;1.45;;
23338;SDS011;11841;49.368;20.962;2022-09-03T07:33:53;1.50;;;1.10;;
23338;SDS011;11841;49.368;20.962;2022-09-03T07:36:21;1.35;;;1.25;;
23338;SDS011;11841;49.368;20.962;2022-09-03T07:38:49;18.52;;;4.50;;
23338;SDS011;11841;49.368;20.962;2022-09-03T07:41:16;4.15;;;2.05;;
23338;SDS011;11841;49.368;20.962;2022-09-03T07:43:54;1.20;;;1.10;;
23338;SDS011;11841;49.368;20.962;2022-09-03T07:46:24;1.30;;;1.15;;
23338;SDS011;11841;49.368;20.962;2022-09-03T07:48:53;3.75;;;1.30;;
23338;SDS011;11841;49.368;20.962;2022-09-03T07:51:25;1.50;;;1.30;;
23338;SDS011;11841;49.368;20.962;2022-09-03T07:53:54;1.45;;;1.35;;
23338;SDS011;11841;49.368;20.962;2022-09-03T07:56:25;1.73;;;1.45;;
23338;SDS011;11841;49.368;20.962;2022-09-03T07:58:53;2.25;;;1.10;;
23338;SDS011;11841;49.368;20.962;2022-09-03T08:01:23;1.70;;;1.50;;
23338;SDS011;11841;49.368;20.962;2022-09-03T08:03:51;1.38;;;1.23;;
23338;SDS011;11841;49.368;20.962;2022-09-03T08:06:20;1.38;;;1.20;;
23338;SDS011;11841;49.368;20.962;2022-09-03T08:08:48;1.85;;;1.70;;
23338;SDS011;11841;49.368;20.962;2022-09-03T08:11:19;1.48;;;1.35;;
23338;SDS011;11841;49.368;20.962;2022-09-03T08:13:48;1.45;;;1.35;;
23338;SDS011;11841;49.368;20.962;2022-09-03T08:16:19;2.28;;;1.60;;
23338;SDS011;11841;49.368;20.962;2022-09-03T08:18:46;2.50;;;1.73;;
23338;SDS011;11841;49.368;20.962;2022-09-03T08:21:14;1.55;;;1.30;;
23338;SDS011;11841;49.368;20.962;2022-09-03T08:23:43;2.17;;;1.33;;
23338;SDS011;11841;49.368;20.962;2022-09-03T08:26:11;1.85;;;1.33;;
23338;SDS011;11841;49.368;20.962;2022-09-03T08:28:38;1.60;;;1.50;;
23338;SDS011;11841;49.368;20.962;2022-09-03T08:31:06;2.97;;;1.92;;
23338;SDS011;11841;49.368;20.962;2022-09-03T08:33:48;2.78;;;1.77;;
23338;SDS011;11841;49.368;20.962;2022-09-03T08:36:17;8.02;;;4.05;;
23338;SDS011;11841;49.368;20.962;2022-09-03T08:38:48;15.10;;;5.63;;
23338;SDS011;11841;49.368;20.962;2022-09-03T08:41:16;7.28;;;3.17;;
23338;SDS011;11841;49.368;20.962;2022-09-03T08:49:19;2.42;;;2.20;;
23338;SDS011;11841;49.368;20.962;2022-09-03T08:52:15;7.07;;;3.78;;
23338;SDS011;11841;49.368;20.962;2022-09-03T08:54:47;2.97;;;1.67;;
23338;SDS011;11841;49.368;20.962;2022-09-03T08:57:18;2.05;;;1.83;;
23338;SDS011;11841;49.368;20.962;2022-09-03T08:59:47;1.85;;;1.65;;
23338;SDS011;11841;49.368;20.962;2022-09-03T09:02:23;2.00;;;1.60;;
23338;SDS011;11841;49.368;20.962;2022-09-03T09:04:58;3.72;;;1.60;;
23338;SDS011;11841;49.368;20.962;2022-09-03T09:13:09;1.83;;;1.52;;
23338;SDS011;11841;49.368;20.962;2022-09-03T09:15:50;2.58;;;1.80;;
23338;SDS011;11841;49.368;20.962;2022-09-03T09:21:05;2.22;;;2.03;;
23338;SDS011;11841;49.368;20.962;2022-09-03T09:23:45;2.65;;;2.33;;
23338;SDS011;11841;49.368;20.962;2022-09-03T09:26:17;3.05;;;1.98;;
23338;SDS011;11841;49.368;20.962;2022-09-03T09:28:49;1.55;;;1.40;;
23338;SDS011;11841;49.368;20.962;2022-09-03T09:31:28;3.38;;;1.70;;
23338;SDS011;11841;49.368;20.962;2022-09-03T09:34:00;3.80;;;2.00;;
23338;SDS011;11841;49.368;20.962;2022-09-03T09:36:31;3.25;;;1.83;;
23338;SDS011;11841;49.368;20.962;2022-09-03T09:39:12;3.20;;;2.30;;
23338;SDS011;11841;49.368;20.962;2022-09-03T09:41:41;3.00;;;1.63;;
23338;SDS011;11841;49.368;20.962;2022-09-03T09:44:17;1.75;;;1.30;;
23338;SDS011;11841;49.368;20.962;2022-09-03T09:46:45;2.25;;;1.65;;
23338;SDS011;11841;49.368;20.962;2022-09-03T09:52:01;2.00;;;1.80;;
23338;SDS011;11841;49.368;20.962;2022-09-03T09:54:33;1.65;;;1.50;;
23338;SDS011;11841;49.368;20.962;2022-09-03T09:57:01;3.65;;;2.17;;
23338;SDS011;11841;49.368;20.962;2022-09-03T09:59:30;2.30;;;1.63;;
23338;SDS011;11841;49.368;20.962;2022-09-03T10:04:36;2.15;;;1.60;;
23338;SDS011;11841;49.368;20.962;2022-09-03T10:07:05;1.55;;;1.40;;
23338;SDS011;11841;49.368;20.962;2022-09-03T10:09:45;3.33;;;1.35;;
23338;SDS011;11841;49.368;20.962;2022-09-03T10:12:22;1.70;;;1.60;;
23338;SDS011;11841;49.368;20.962;2022-09-03T10:18:01;1.63;;;1.40;;
23338;SDS011;11841;49.368;20.962;2022-09-03T10:21:10;2.17;;;1.95;;
23338;SDS011;11841;49.368;20.962;2022-09-03T10:26:21;1.30;;;1.20;;
23338;SDS011;11841;49.368;20.962;2022-09-03T10:29:02;9.52;;;1.48;;
23338;SDS011;11841;49.368;20.962;2022-09-03T10:37:36;2.55;;;1.92;;
23338;SDS011;11841;49.368;20.962;2022-09-03T10:46:09;2.38;;;1.33;;
23338;SDS011;11841;49.368;20.962;2022-09-03T11:11:53;1.80;;;1.63;;
23338;SDS011;11841;49.368;20.962;2022-09-03T11:14:54;9.05;;;2.78;;
23338;SDS011;11841;49.368;20.962;2022-09-03T11:17:31;6.20;;;3.00;;
23338;SDS011;11841;49.368;20.962;2022-09-03T11:22:42;3.92;;;2.20;;
23338;SDS011;11841;49.368;20.962;2022-09-03T11:30:11;3.75;;;1.65;;
23338;SDS011;11841;49.368;20.962;2022-09-03T11:32:50;1.48;;;1.25;;
23338;SDS011;11841;49.368;20.962;2022-09-03T11:37:57;2.80;;;1.67;;
23338;SDS011;11841;49.368;20.962;2022-09-03T11:40:39;3.08;;;1.60;;
23338;SDS011;11841;49.368;20.962;2022-09-03T11:43:31;4.50;;;1.70;;
23338;SDS011;11841;49.368;20.962;2022-09-03T11:46:07;2.72;;;1.65;;
23338;SDS011;11841;49.368;20.962;2022-09-03T11:48:41;4.63;;;2.28;;
23338;SDS011;11841;49.368;20.962;2022-09-03T11:53:59;3.47;;;1.63;;
23338;SDS011;11841;49.368;20.962;2022-09-03T11:56:26;2.38;;;1.83;;
23338;SDS011;11841;49.368;20.962;2022-09-03T12:01:43;3.90;;;1.83;;
23338;SDS011;11841;49.368;20.962;2022-09-03T12:04:24;4.53;;;1.92;;
23338;SDS011;11841;49.368;20.962;2022-09-03T12:10:07;3.38;;;2.50;;
23338;SDS011;11841;49.368;20.962;2022-09-03T12:18:13;4.43;;;2.35;;
23338;SDS011;11841;49.368;20.962;2022-09-03T12:20:59;3.55;;;1.65;;
23338;SDS011;11841;49.368;20.962;2022-09-03T12:26:05;3.95;;;1.98;;
23338;SDS011;11841;49.368;20.962;2022-09-03T12:28:34;8.75;;;1.90;;
23338;SDS011;11841;49.368;20.962;2022-09-03T12:31:07;2.67;;;2.00;;
23338;SDS011;11841;49.368;20.962;2022-09-03T12:33:58;3.85;;;2.53;;
23338;SDS011;11841;49.368;20.962;2022-09-03T12:36:26;3.60;;;1.98;;
23338;SDS011;11841;49.368;20.962;2022-09-03T12:39:10;2.33;;;2.10;;
23338;SDS011;11841;49.368;20.962;2022-09-03T12:42:15;3.25;;;2.50;;
23338;SDS011;11841;49.368;20.962;2022-09-03T12:44:47;3.75;;;2.33;;
23338;SDS011;11841;49.368;20.962;2022-09-03T12:47:18;2.90;;;2.03;;
23338;SDS011;11841;49.368;20.962;2022-09-03T12:50:07;2.97;;;2.45;;
23338;SDS011;11841;49.368;20.962;2022-09-03T12:52:50;4.80;;;2.33;;
23338;SDS011;11841;49.368;20.962;2022-09-03T12:55:35;3.28;;;2.17;;
23338;SDS011;11841;49.368;20.962;2022-09-03T12:58:09;8.00;;;2.53;;
23338;SDS011;11841;49.368;20.962;2022-09-03T13:00:44;3.20;;;2.58;;
23338;SDS011;11841;49.368;20.962;2022-09-03T13:03:18;2.60;;;2.40;;
23338;SDS011;11841;49.368;20.962;2022-09-03T13:05:53;4.50;;;2.97;;
23338;SDS011;11841;49.368;20.962;2022-09-03T13:08:31;2.72;;;2.40;;
23338;SDS011;11841;49.368;20.962;2022-09-03T13:11:04;3.88;;;2.10;;
23338;SDS011;11841;49.368;20.962;2022-09-03T13:13:32;7.35;;;2.15;;
23338;SDS011;11841;49.368;20.962;2022-09-03T13:21:23;3.60;;;2.20;;
23338;SDS011;11841;49.368;20.962;2022-09-03T13:26:51;3.22;;;2.40;;
23338;SDS011;11841;49.368;20.962;2022-09-03T13:35:37;3.38;;;2.05;;
23338;SDS011;11841;49.368;20.962;2022-09-03T13:48:40;4.50;;;2.17;;
23338;SDS011;11841;49.368;20.962;2022-09-03T13:51:30;3.58;;;2.28;;
23338;SDS011;11841;49.368;20.962;2022-09-03T13:56:48;2.95;;;2.08;;
23338;SDS011;11841;49.368;20.962;2022-09-03T13:59:55;3.65;;;2.55;;
23338;SDS011;11841;49.368;20.962;2022-09-03T14:02:43;3.92;;;2.45;;
23338;SDS011;11841;49.368;20.962;2022-09-03T14:05:14;5.97;;;2.20;;
23338;SDS011;11841;49.368;20.962;2022-09-03T14:15:40;1.95;;;1.75;;
23338;SDS011;11841;49.368;20.962;2022-09-03T14:26:37;7.43;;;3.65;;
23338;SDS011;11841;49.368;20.962;2022-09-03T14:29:16;3.50;;;2.33;;
23338;SDS011;11841;49.368;20.962;2022-09-03T14:46:14;2.72;;;1.58;;
23338;SDS011;11841;49.368;20.962;2022-09-03T14:59:58;1.98;;;1.60;;
23338;SDS011;11841;49.368;20.962;2022-09-03T15:11:19;3.50;;;2.30;;
23338;SDS011;11841;49.368;20.962;2022-09-03T15:30:41;1.83;;;1.58;;
23338;SDS011;11841;49.368;20.962;2022-09-03T15:33:16;2.33;;;1.83;;
23338;SDS011;11841;49.368;20.962;2022-09-03T15:41:38;2.38;;;2.00;;
23338;SDS011;11841;49.368;20.962;2022-09-03T15:44:14;2.25;;;1.85;;
23338;SDS011;11841;49.368;20.962;2022-09-03T15:55:22;2.97;;;2.17;;
23338;SDS011;11841;49.368;20.962;2022-09-03T15:57:58;4.05;;;2.75;;
23338;SDS011;11841;49.368;20.962;2022-09-03T16:00:57;8.65;;;2.40;;
23338;SDS011;11841;49.368;20.962;2022-09-03T16:06:02;3.13;;;2.05;;
23338;SDS011;11841;49.368;20.962;2022-09-03T16:08:41;3.05;;;2.33;;
23338;SDS011;11841;49.368;20.962;2022-09-03T16:11:17;5.40;;;3.00;;
23338;SDS011;11841;49.368;20.962;2022-09-03T16:13:53;9.98;;;5.38;;
23338;SDS011;11841;49.368;20.962;2022-09-03T16:25:31;8.20;;;5.13;;
23338;SDS011;11841;49.368;20.962;2022-09-03T16:28:10;28.27;;;9.68;;
23338;SDS011;11841;49.368;20.962;2022-09-03T16:30:50;72.10;;;22.20;;
23338;SDS011;11841;49.368;20.962;2022-09-03T16:33:34;20.70;;;8.80;;
23338;SDS011;11841;49.368;20.962;2022-09-03T16:38:42;29.30;;;11.75;;
23338;SDS011;11841;49.368;20.962;2022-09-03T16:44:26;4.78;;;3.03;;
23338;SDS011;11841;49.368;20.962;2022-09-03T16:55:46;5.90;;;2.45;;
23338;SDS011;11841;49.368;20.962;2022-09-03T16:58:15;3.25;;;2.65;;
23338;SDS011;11841;49.368;20.962;2022-09-03T17:12:27;3.92;;;2.60;;
23338;SDS011;11841;49.368;20.962;2022-09-03T17:15:08;2.90;;;2.60;;
23338;SDS011;11841;49.368;20.962;2022-09-03T17:26:09;3.67;;;2.08;;
23338;SDS011;11841;49.368;20.962;2022-09-03T17:28:55;4.45;;;2.97;;
23338;SDS011;11841;49.368;20.962;2022-09-03T17:31:33;7.70;;;2.58;;
23338;SDS011;11841;49.368;20.962;2022-09-03T17:34:29;4.07;;;2.55;;
23338;SDS011;11841;49.368;20.962;2022-09-03T17:40:17;3.90;;;2.58;;
23338;SDS011;11841;49.368;20.962;2022-09-03T17:48:05;5.38;;;2.63;;
23338;SDS011;11841;49.368;20.962;2022-09-03T17:50:56;3.47;;;2.28;;
23338;SDS011;11841;49.368;20.962;2022-09-03T17:53:36;2.83;;;2.45;;
23338;SDS011;11841;49.368;20.962;2022-09-03T17:59:00;4.50;;;2.72;;
23338;SDS011;11841;49.368;20.962;2022-09-03T18:01:36;2.78;;;2.15;;
23338;SDS011;11841;49.368;20.962;2022-09-03T18:09:41;4.20;;;3.00;;
23338;SDS011;11841;49.368;20.962;2022-09-03T18:12:31;4.30;;;2.58;;
23338;SDS011;11841;49.368;20.962;2022-09-03T18:15:21;2.28;;;1.95;;
23338;SDS011;11841;49.368;20.962;2022-09-03T18:18:19;8.43;;;2.45;;
23338;SDS011;11841;49.368;20.962;2022-09-03T18:20:53;3.05;;;2.40;;
23338;SDS011;11841;49.368;20.962;2022-09-03T18:24:27;5.40;;;2.40;;
23338;SDS011;11841;49.368;20.962;2022-09-03T18:27:17;3.85;;;2.25;;
23338;SDS011;11841;49.368;20.962;2022-09-03T18:30:11;3.50;;;2.58;;
23338;SDS011;11841;49.368;20.962;2022-09-03T18:32:59;2.65;;;2.38;;
23338;SDS011;11841;49.368;20.962;2022-09-03T18:35:44;5.22;;;2.58;;
23338;SDS011;11841;49.368;20.962;2022-09-03T18:38:32;5.05;;;2.63;;
23338;SDS011;11841;49.368;20.962;2022-09-03T18:44:38;2.90;;;2.60;;
23338;SDS011;11841;49.368;20.962;2022-09-03T19:11:21;3.40;;;2.92;;
23338;SDS011;11841;49.368;20.962;2022-09-03T19:14:25;3.35;;;2.72;;
23338;SDS011;11841;49.368;20.962;2022-09-03T19:20:26;3.75;;;3.38;;
23338;SDS011;11841;49.368;20.962;2022-09-03T19:23:14;4.70;;;3.30;;
23338;SDS011;11841;49.368;20.962;2022-09-03T19:26:02;5.57;;;3.42;;
23338;SDS011;11841;49.368;20.962;2022-09-03T19:28:57;5.15;;;3.15;;
23338;SDS011;11841;49.368;20.962;2022-09-03T19:31:50;6.70;;;3.55;;
23338;SDS011;11841;49.368;20.962;2022-09-03T19:47:02;3.90;;;3.00;;
23338;SDS011;11841;49.368;20.962;2022-09-03T19:52:46;5.07;;;3.38;;
23338;SDS011;11841;49.368;20.962;2022-09-03T19:55:40;4.40;;;3.42;;
23338;SDS011;11841;49.368;20.962;2022-09-03T19:58:33;4.72;;;3.20;;
23338;SDS011;11841;49.368;20.962;2022-09-03T20:04:13;6.35;;;3.42;;
23338;SDS011;11841;49.368;20.962;2022-09-03T20:06:59;3.65;;;3.17;;
23338;SDS011;11841;49.368;20.962;2022-09-03T20:09:48;4.47;;;3.38;;
23338;SDS011;11841;49.368;20.962;2022-09-03T20:12:36;4.63;;;3.72;;
23338;SDS011;11841;49.368;20.962;2022-09-03T20:15:06;5.05;;;3.50;;
23338;SDS011;11841;49.368;20.962;2022-09-03T20:20:23;4.80;;;3.45;;
23338;SDS011;11841;49.368;20.962;2022-09-03T20:28:49;4.72;;;3.13;;
23338;SDS011;11841;49.368;20.962;2022-09-03T20:37:37;4.65;;;3.28;;
23338;SDS011;11841;49.368;20.962;2022-09-03T20:48:24;5.40;;;3.50;;
23338;SDS011;11841;49.368;20.962;2022-09-03T20:51:05;9.10;;;4.13;;
23338;SDS011;11841;49.368;20.962;2022-09-03T20:53:40;5.20;;;3.70;;
23338;SDS011;11841;49.368;20.962;2022-09-03T20:56:29;5.63;;;3.88;;
23338;SDS011;11841;49.368;20.962;2022-09-03T20:59:10;5.82;;;3.70;;
23338;SDS011;11841;49.368;20.962;2022-09-03T21:04:24;5.50;;;3.97;;
23338;SDS011;11841;49.368;20.962;2022-09-03T21:09:51;5.75;;;3.97;;
23338;SDS011;11841;49.368;20.962;2022-09-03T21:12:37;5.65;;;3.90;;
23338;SDS011;11841;49.368;20.962;2022-09-03T21:25:37;6.35;;;3.78;;
23338;SDS011;11841;49.368;20.962;2022-09-03T21:28:31;8.63;;;4.03;;
23338;SDS011;11841;49.368;20.962;2022-09-03T21:31:15;4.15;;;3.45;;
23338;SDS011;11841;49.368;20.962;2022-09-03T21:33:47;5.43;;;4.10;;
23338;SDS011;11841;49.368;20.962;2022-09-03T21:39:08;4.93;;;4.00;;
23338;SDS011;11841;49.368;20.962;2022-09-03T21:46:39;5.65;;;4.28;;
23338;SDS011;11841;49.368;20.962;2022-09-03T21:49:13;6.18;;;4.50;;
23338;SDS011;11841;49.368;20.962;2022-09-03T21:54:32;5.38;;;4.20;;
23338;SDS011;11841;49.368;20.962;2022-09-03T21:59:59;4.22;;;3.83;;
23338;SDS011;11841;49.368;20.962;2022-09-03T22:02:34;5.15;;;3.78;;
23338;SDS011;11841;49.368;20.962;2022-09-03T22:05:02;6.13;;;4.30;;
23338;SDS011;11841;49.368;20.962;2022-09-03T22:16:08;8.98;;;3.95;;
23338;SDS011;11841;49.368;20.962;2022-09-03T22:18:40;9.13;;;4.45;;
23338;SDS011;11841;49.368;20.962;2022-09-03T22:21:19;5.07;;;3.80;;
23338;SDS011;11841;49.368;20.962;2022-09-03T22:26:55;5.13;;;4.18;;
23338;SDS011;11841;49.368;20.962;2022-09-03T22:46:10;6.93;;;4.90;;
23338;SDS011;11841;49.368;20.962;2022-09-03T22:48:44;5.32;;;4.40;;
23338;SDS011;11841;49.368;20.962;2022-09-03T22:51:15;6.32;;;4.40;;
23338;SDS011;11841;49.368;20.962;2022-09-03T22:56:46;7.05;;;4.22;;
23338;SDS011;11841;49.368;20.962;2022-09-03T22:59:23;5.38;;;4.35;;
23338;SDS011;11841;49.368;20.962;2022-09-03T23:02:17;6.45;;;4.50;;
23338;SDS011;11841;49.368;20.962;2022-09-03T23:07:26;5.88;;;3.88;;